METAR Data
IDs: Format: Raw Decoded Include TAF

Data at: 0625 UTC 23 Feb 2019

KBYY 230615Z AUTO 16008G15KT 1 1/2SM BR OVC002 21/21 A2985 RMK AO2 T02160216
KBYY 230555Z AUTO 16009KT 3/4SM BR OVC002 21/21 A2985 RMK AO2 T02150215
KBYY 230535Z AUTO 16008KT 3/4SM -RA OVC002 21/21 A2986 RMK AO2 T02120212
KBYY 230515Z AUTO 16008KT 1/2SM -DZ OVC002 21/21 A2986 RMK AO2 T02080208
KBYY 230455Z AUTO 16006KT 1/2SM -RA OVC002 20/20 A2987 RMK AO2 T02050205
KBYY 230435Z AUTO 15006KT 1/4SM -DZ OVC002 20/20 A2987 RMK AO2 T02040204
KBYY 230415Z AUTO 16004KT 1/4SM -RA OVC002 20/20 A2987 RMK AO2 T02050205
KBYY 230355Z AUTO 15003KT 1/4SM FG OVC002 20/20 A2988 RMK AO2 T02050205
KBYY 230335Z AUTO 16004KT 1/4SM RA OVC002 20/20 A2988 RMK AO2 T02060206
KBYY 230315Z AUTO 00000KT 1/4SM FG OVC002 20/20 A2988 RMK AO2 T02060206
KBYY 230255Z AUTO 17003KT 1/4SM -DZ OVC002 20/20 A2988 RMK AO2 T02060206
KBYY 230235Z AUTO 16003KT 1/4SM FG OVC002 20/20 A2989 RMK AO2 T02080208
KBYY 230215Z AUTO 16003KT 1/2SM FG OVC002 21/21 A2988 RMK AO2 T02100210
KBYY 230155Z AUTO 17003KT 1/2SM -RA OVC002 21/21 A2988 RMK AO2 T02110211
KBYY 230135Z AUTO 17004KT 1/2SM FG OVC002 21/21 A2988 RMK AO2 T02140214
KBYY 230115Z AUTO 17006KT 3/4SM BR OVC002 21/21 A2987 RMK AO2 T02150215
KBYY 230055Z AUTO 16005KT 2 1/2SM BR OVC002 21/21 A2987 RMK AO2 T02150215
KBYY 230035Z AUTO 00000KT 5SM BR OVC002 21/21 A2987 RMK AO2 T02160215
KBYY 230015Z AUTO 17006KT 5SM BR OVC002 21/21 A2987 RMK AO2 T02190215
KBYY 222355Z AUTO 16006KT 7SM OVC004 22/21 A2987 RMK AO2 T02230215
KBYY 222335Z AUTO 19007KT 10SM OVC006 22/21 A2986 RMK AO2 T02280216
KBYY 222315Z AUTO 19007KT 10SM OVC006 23/21 A2986 RMK AO2 T02330219
KBYY 222255Z AUTO 17007KT 10SM OVC008 23/21 A2985 RMK AO2 T02370218
KBYY 222235Z AUTO 17009KT 10SM OVC008 23/21 A2985 RMK AO2 T02420219
KBYY 222215Z AUTO 15008KT 10SM OVC008 23/22 A2985 RMK AO2 T02410220
KBYY 222200Z AUTO 17008KT 10SM OVC008 23/22 A2985 RMK AO2 T02420220
KBYY 222135Z AUTO 16007KT 10SM OVC010 24/22 A2985 RMK AO2 T02440220
KBYY 222115Z AUTO 15009KT 7SM OVC010 24/22 A2986 RMK AO2 T02440220
KBYY 222055Z AUTO 16008KT 7SM OVC010 23/22 A2985 RMK AO2 T02410219
KBYY 222035Z AUTO 16009KT 7SM BKN010 OVC013 23/21 A2987 RMK AO2 T02400218
KBYY 222015Z AUTO 16010KT 7SM BKN010 BKN049 OVC060 23/21 A2987 RMK AO2 T02410217
KBYY 221955Z AUTO 16009KT 7SM SCT010 BKN013 OVC075 24/21 A2988 RMK AO2 T02470216
KBYY 221935Z AUTO 16012KT 10SM BKN015 BKN042 OVC050 25/21 A2988 RMK AO2 T02500215
KBYY 221915Z AUTO 17012G15KT 10SM BKN017 OVC050 25/21 A2989 RMK AO2 T02570213
KBYY 221855Z AUTO 16013G18KT 10SM BKN017 OVC050 26/21 A2990 RMK AO2 T02600212
KBYY 221835Z AUTO 16012KT 10SM BKN015 BKN020 OVC070 25/21 A2991 RMK AO2 T02590215
KBYY 221815Z AUTO 16013KT 10SM BKN015 OVC070 25/21 A2992 RMK AO2 T02570214
KBYY 221755Z AUTO 15010G17KT 10SM OVC013 25/21 A2992 RMK AO2 T02480217
KBYY 221735Z AUTO 14007KT 10SM BKN004 OVC011 23/22 A2993 RMK AO2 T02280224
KBYY 221715Z AUTO 13008KT 7SM OVC004 21/21 A2993 RMK AO2 T02130213
KBYY 221655Z AUTO 13010KT 5SM BR OVC002 21/21 A2993 RMK AO2 T02030203
KBYY 221635Z AUTO 12010KT 2SM BR OVC002 19/19 A2993 RMK AO2 T01900190
KBYY 221615Z AUTO 13007KT 1/2SM FG OVC002 18/18 A2993 RMK AO2 T01780178
KBYY 221555Z AUTO 11007KT 1/4SM FG OVC002 17/17 A2993 RMK AO2 T01640164
KBYY 221535Z AUTO 09006KT 1/2SM FG OVC002 15/15 A2994 RMK AO2 T01520152
KBYY 221515Z AUTO 07007KT 1/2SM FG OVC002 14/14 A2995 RMK AO2 T01430143
KBYY 221455Z AUTO 07006KT 1/2SM FG OVC002 13/13 A2995 RMK AO2 T01370137
KBYY 221435Z AUTO 07007KT 1/4SM FG OVC002 13/13 A2995 RMK AO2 T01320132
KBYY 221415Z AUTO 07007KT 1/2SM FG OVC002 12/12 A2994 RMK AO2 T01290129
KBYY 221355Z AUTO 06008KT 1/2SM FG OVC002 12/12 A2993 RMK AO2 T01250125
KBYY 221335Z AUTO 06009KT 1/2SM FG OVC002 12/12 A2993 RMK AO2 T01220122
KBYY 221315Z AUTO 06007KT 1SM BR OVC002 12/12 A2993 RMK AO2 T01210121
KBYY 221255Z AUTO 01006KT 1SM BR OVC002 12/12 A2994 RMK AO2 T01210121
KBYY 221235Z AUTO 06008KT 1SM BR OVC002 12/12 A2992 RMK AO2 T01200120
KBYY 221215Z AUTO 07007KT 1SM BR OVC002 12/12 A2993 RMK AO2 T01200120
KBYY 221155Z AUTO 05008KT 3/4SM BR OVC002 12/12 A2993 RMK AO2 T01200120
KBYY 221135Z AUTO 02008KT 3/4SM BR OVC002 12/12 A2993 RMK AO2 T01200120
KBYY 221115Z AUTO 03007KT 3/4SM BR OVC002 12/12 A2992 RMK AO2 T01200120
KBYY 221055Z AUTO 04009KT 3/4SM BR OVC002 12/12 A2991 RMK AO2 T01200120
KBYY 221035Z AUTO 03006KT 1SM BR OVC002 12/12 A2991 RMK AO2 T01210121
KBYY 221015Z AUTO 02006KT 1 1/4SM BR OVC002 12/12 A2992 RMK AO2 T01210121
KBYY 220955Z AUTO 03006KT 2SM BR OVC002 12/12 A2991 RMK AO2 P0001 T01220122
KBYY 220935Z AUTO 02006KT 5SM BR OVC004 12/12 A2992 RMK AO2 P0001 T01220122
KBYY 220915Z AUTO 03006KT 5SM -DZ OVC004 12/12 A2992 RMK AO2 P0001 T01230123
KBYY 220855Z AUTO 03008KT 5SM DZ OVC004 12/12 A2992 RMK AO2 P0001 T01230123
KBYY 220835Z AUTO 02006KT 5SM -RA OVC004 12/12 A2993 RMK AO2 P0001 T01230123
KBYY 220815Z AUTO 04008KT 5SM DZ OVC002 12/12 A2992 RMK AO2 P0001 T01250125
KBYY 220755Z AUTO 03006KT 5SM DZ OVC002 12/12 A2993 RMK AO2 P0001 T01250125
KBYY 220735Z AUTO 02006KT 4SM DZ OVC002 12/12 A2993 RMK AO2 T01250125
KBYY 220715Z AUTO 01007KT 1 1/4SM -RA OVC002 12/12 A2993 RMK AO2 T01250125
KBYY 220655Z AUTO 01006KT 3/4SM BR OVC002 12/12 A2993 RMK AO2 T01260126
KBYY 220635Z AUTO 01007KT 3/4SM BR OVC002 12/12 A2992 RMK AO2 T01270127
KBYY 220615Z AUTO 36007KT 3/4SM BR OVC002 12/12 A2992 RMK AO2 T01290129
KBYY 220555Z AUTO 04007KT 3/4SM BR OVC002 12/12 A2991 RMK AO2 T01280128
KBYY 220535Z AUTO 04004KT 3/4SM BR OVC002 12/12 A2991 RMK AO2 T01270127
KBYY 220515Z AUTO 04005KT 1SM BR OVC002 12/12 A2992 RMK AO2 T01280128
KBYY 220455Z AUTO 06007KT 1 3/4SM BR OVC002 12/12 A2992 RMK AO2 T01290129
KBYY 220435Z AUTO 04004KT 1SM BR OVC002 12/12 A2992 RMK AO2 T01280128
KBYY 220415Z AUTO 04004KT 3/4SM BR OVC002 12/12 A2992 RMK AO2 T01270127
KBYY 220355Z AUTO 04004KT 1SM BR OVC002 12/12 A2992 RMK AO2 T01270127
KBYY 220335Z AUTO 03004KT 1 1/4SM BR OVC002 12/12 A2993 RMK AO2 T01270127
KBYY 220315Z AUTO 02005KT 1 1/4SM BR OVC002 12/12 A2991 RMK AO2 T01270127
KBYY 220255Z AUTO 04005KT 1 1/2SM BR OVC002 12/12 A2991 RMK AO2 T01270127
KBYY 220235Z AUTO 04006KT 2 1/2SM BR OVC002 12/12 A2990 RMK AO2 T01280128
KBYY 220215Z AUTO 04008KT 2 1/2SM BR OVC002 12/12 A2989 RMK AO2 T01270127
KBYY 220155Z AUTO 04006KT 2SM BR OVC002 12/12 A2988 RMK AO2 T01270127
KBYY 220135Z AUTO 04008KT 1 3/4SM BR OVC002 12/12 A2987 RMK AO2 T01270127
KBYY 220115Z AUTO 04006KT 1 3/4SM BR OVC002 12/12 A2987 RMK AO2 T01270127
KBYY 220055Z AUTO 04007KT 2 1/2SM BR OVC002 12/12 A2988 RMK AO2 T01280128
KBYY 220035Z AUTO 03005KT 2 1/2SM BR OVC002 12/12 A2988 RMK AO2 T01280128
KBYY 220015Z AUTO 03006KT 2 1/2SM BR OVC004 12/12 A2988 RMK AO2 T01290129
KBYY 212355Z AUTO 03006KT 3SM BR OVC004 12/12 A2987 RMK AO2 T01300130
KBYY 212335Z AUTO 02006KT 3SM BR OVC004 12/12 A2987 RMK AO2 T01300130
KBYY 212315Z AUTO 03009KT 3SM BR OVC004 12/12 A2986 RMK AO2 T01300130
KBYY 212255Z AUTO 02006KT 2 1/2SM BR OVC004 12/12 A2987 RMK AO2 T01300130
KBYY 212235Z AUTO 02006KT 2 1/2SM BR OVC004 13/13 A2987 RMK AO2 T01310131
KBYY 212215Z AUTO 01007KT 1 3/4SM BR OVC004 13/13 A2987 RMK AO2 T01330132
KBYY 212155Z AUTO 01008KT 2 1/2SM BR OVC004 13/13 A2987 RMK AO2 T01330131
KBYY 212135Z AUTO 02007KT 1 3/4SM BR OVC004 13/13 A2986 RMK AO2 T01340131
KBYY 212115Z AUTO 02006KT 2 1/2SM BR OVC004 13/13 A2986 RMK AO2 T01350130
KBYY 212055Z AUTO 02008KT 4SM BR OVC004 13/12 A2986 RMK AO2 T01350131
KBYY 212035Z AUTO 04008KT 4SM BR OVC004 13/12 A2986 RMK AO2 T01330131
KBYY 212015Z AUTO 03008KT 4SM BR OVC004 13/13 A2987 RMK AO2 T01340133
KBYY 211955Z AUTO 01008KT 3SM BR OVC004 13/13 A2987 RMK AO2 T01330133
KBYY 211935Z AUTO 02007KT 3SM -RA OVC004 13/12 A2988 RMK AO2 T01300129
KBYY 211915Z AUTO 01009KT 1 1/2SM BR OVC004 12/12 A2988 RMK AO2 T01310129
KBYY 211855Z AUTO 02007KT 1 3/4SM BR OVC004 12/12 A2989 RMK AO2 T01310129
KBYY 211835Z AUTO 01007KT 2SM BR OVC004 13/12 A2990 RMK AO2 T01310127